createdAt,value
2018-11-23T00:00:58.161Z,2.70
2018-11-23T00:03:26.391Z,2.70
2018-11-23T00:05:55.806Z,2.70
2018-11-23T00:08:24.059Z,2.70
2018-11-23T00:10:52.296Z,2.60
2018-11-23T00:13:20.519Z,2.60
2018-11-23T00:15:48.718Z,2.60
2018-11-23T00:18:17.000Z,2.60
2018-11-23T00:20:45.216Z,2.60
2018-11-23T00:23:13.477Z,2.60
2018-11-23T00:25:42.203Z,2.50
2018-11-23T00:28:10.049Z,2.50
2018-11-23T00:30:38.231Z,2.50
2018-11-23T00:33:06.840Z,2.50
2018-11-23T00:35:35.032Z,2.40
2018-11-23T00:38:03.217Z,2.20
2018-11-23T00:40:32.311Z,2.10
2018-11-23T00:43:00.975Z,2.00
2018-11-23T00:45:29.215Z,1.90
2018-11-23T00:47:58.273Z,1.80
2018-11-23T00:50:26.971Z,1.80
2018-11-23T00:55:46.423Z,1.80
2018-11-23T01:01:05.692Z,1.80
2018-11-23T01:03:33.875Z,1.90
2018-11-23T01:06:02.107Z,1.90
2018-11-23T01:08:30.307Z,2.00
2018-11-23T01:10:58.572Z,2.10
2018-11-23T01:13:26.779Z,2.20
2018-11-23T01:15:55.131Z,2.20
2018-11-23T01:18:23.319Z,2.30
2018-11-23T01:20:51.500Z,2.40
2018-11-23T01:23:19.721Z,2.40
2018-11-23T01:25:47.911Z,2.50
2018-11-23T01:28:16.187Z,2.50
2018-11-23T01:30:44.372Z,2.60
2018-11-23T01:33:12.583Z,2.60
2018-11-23T01:35:40.783Z,2.70
2018-11-23T01:38:09.011Z,2.70
2018-11-23T01:40:37.175Z,2.70
2018-11-23T01:43:05.396Z,2.80
2018-11-23T01:45:33.664Z,2.80
2018-11-23T01:48:01.847Z,2.80
2018-11-23T01:50:30.656Z,2.90
2018-11-23T01:52:59.048Z,2.90
2018-11-23T01:55:27.553Z,2.90
2018-11-23T01:57:55.788Z,3.00
2018-11-23T02:00:25.356Z,3.00
2018-11-23T02:02:54.339Z,3.20
2018-11-23T02:05:22.576Z,3.30
2018-11-23T02:07:50.839Z,3.40
2018-11-23T02:10:19.411Z,3.40
2018-11-23T02:12:47.616Z,3.20
2018-11-23T02:15:17.967Z,3.10
2018-11-23T02:17:46.453Z,3.00
2018-11-23T02:20:15.743Z,2.90
2018-11-23T02:22:43.971Z,2.90
2018-11-23T02:25:12.192Z,2.80
2018-11-23T02:27:40.455Z,2.70
2018-11-23T02:30:14.554Z,2.60
2018-11-23T02:32:43.031Z,2.50
2018-11-23T02:35:11.321Z,2.40
2018-11-23T02:37:39.928Z,2.30
2018-11-23T02:40:09.027Z,2.10
2018-11-23T02:42:37.732Z,2.00
2018-11-23T02:45:08.167Z,2.00
2018-11-23T02:47:36.356Z,1.90
2018-11-23T02:50:05.020Z,1.90
2018-11-23T02:52:33.234Z,1.80
2018-11-23T02:55:01.499Z,1.80
2018-11-23T02:57:29.716Z,1.80
2018-11-23T02:59:57.921Z,1.90
2018-11-23T03:02:26.119Z,1.90
2018-11-23T03:04:54.348Z,2.00
2018-11-23T03:07:22.763Z,2.10
2018-11-23T03:09:51.011Z,2.10
2018-11-23T03:12:19.257Z,2.10
2018-11-23T03:14:47.491Z,2.10
2018-11-23T03:17:15.731Z,2.10
2018-11-23T03:19:43.972Z,2.10
2018-11-23T03:22:12.223Z,2.10
2018-11-23T03:24:40.488Z,2.10
2018-11-23T03:27:08.712Z,2.10
2018-11-23T03:29:36.977Z,2.00
2018-11-23T03:32:05.399Z,2.00
2018-11-23T03:34:33.579Z,2.00
2018-11-23T03:37:01.800Z,2.00
2018-11-23T03:39:34.026Z,2.00
2018-11-23T03:41:58.302Z,2.00
2018-11-23T03:44:26.491Z,2.00
2018-11-23T03:46:54.891Z,2.00
2018-11-23T03:49:23.123Z,1.90
2018-11-23T03:51:51.299Z,1.90
2018-11-23T03:54:19.527Z,1.90
2018-11-23T03:56:47.731Z,1.90
2018-11-23T03:59:15.975Z,1.80
2018-11-23T04:01:44.197Z,1.80
2018-11-23T04:04:12.424Z,1.80
2018-11-23T04:06:40.689Z,1.70
2018-11-23T04:09:09.088Z,1.70
2018-11-23T04:11:37.313Z,1.70
2018-11-23T04:14:05.703Z,1.70
2018-11-23T04:16:33.932Z,1.70
2018-11-23T04:19:02.137Z,1.60
2018-11-23T04:21:30.339Z,1.60
2018-11-23T04:23:58.539Z,1.60
2018-11-23T04:26:26.793Z,1.60
2018-11-23T04:28:55.008Z,1.50
2018-11-23T04:31:23.336Z,1.50
2018-11-23T04:33:51.564Z,1.50
2018-11-23T04:36:19.815Z,1.50
2018-11-23T04:38:48.034Z,1.50
2018-11-23T04:41:16.283Z,1.50
2018-11-23T04:43:44.548Z,1.40
2018-11-23T04:46:12.775Z,1.40
2018-11-23T04:48:41.037Z,1.40
2018-11-23T04:51:09.385Z,1.40
2018-11-23T04:53:37.662Z,1.30
2018-11-23T04:56:06.215Z,1.30
2018-11-23T04:58:34.440Z,1.30
2018-11-23T05:01:02.657Z,1.30
2018-11-23T05:03:30.883Z,1.30
2018-11-23T05:05:59.099Z,1.40
2018-11-23T05:08:27.335Z,1.30
2018-11-23T05:10:55.534Z,1.30
2018-11-23T05:13:23.751Z,1.30
2018-11-23T05:15:51.995Z,1.30
2018-11-23T05:18:20.195Z,1.30
2018-11-23T05:20:48.411Z,1.30
2018-11-23T05:23:16.655Z,1.30
2018-11-23T05:25:44.871Z,1.30
2018-11-23T05:28:13.082Z,1.20
2018-11-23T05:30:41.347Z,1.20
2018-11-23T05:33:09.575Z,1.20
2018-11-23T05:35:37.801Z,1.10
2018-11-23T05:38:05.998Z,1.00
2018-11-23T05:40:34.223Z,1.10
2018-11-23T05:43:04.412Z,1.00
2018-11-23T05:45:30.668Z,1.10
2018-11-23T05:47:58.868Z,1.10
2018-11-23T05:50:28.770Z,1.10
2018-11-23T05:52:56.976Z,1.10
2018-11-23T05:55:25.179Z,1.10
2018-11-23T05:57:54.093Z,0.90
2018-11-23T06:00:23.913Z,0.80
2018-11-23T06:02:52.310Z,0.70
2018-11-23T06:05:20.503Z,0.60
2018-11-23T06:07:48.756Z,0.50
2018-11-23T06:10:18.280Z,0.50
2018-11-23T06:12:46.492Z,0.40
2018-11-23T06:15:17.108Z,0.40
2018-11-23T06:17:45.943Z,0.30
2018-11-23T06:20:16.153Z,0.30
2018-11-23T06:22:45.373Z,0.30
2018-11-23T06:25:17.219Z,0.30
2018-11-23T06:27:45.400Z,0.20
2018-11-23T06:30:13.615Z,0.30
2018-11-23T06:32:53.429Z,0.40
2018-11-23T06:35:21.611Z,0.50
2018-11-23T06:37:49.800Z,0.60
2018-11-23T06:40:18.555Z,0.60
2018-11-23T06:42:46.803Z,0.70
2018-11-23T06:45:15.032Z,0.80
2018-11-23T06:47:43.213Z,0.70
2018-11-23T06:50:13.335Z,0.80
2018-11-23T06:52:41.733Z,0.80
2018-11-23T06:55:10.832Z,0.80
2018-11-23T06:57:39.404Z,0.90
2018-11-23T07:00:11.846Z,0.90
2018-11-23T07:02:40.267Z,0.90
2018-11-23T07:05:09.114Z,0.90
2018-11-23T07:07:37.359Z,0.80
2018-11-23T07:10:06.815Z,0.90
2018-11-23T07:12:35.020Z,0.90
2018-11-23T07:15:03.251Z,0.90
2018-11-23T07:17:31.440Z,0.90
2018-11-23T07:19:59.599Z,0.90
2018-11-23T07:22:27.835Z,1.00
2018-11-23T07:24:56.051Z,0.90
2018-11-23T07:27:24.269Z,1.00
2018-11-23T07:29:52.475Z,1.00
2018-11-23T07:32:20.675Z,1.00
2018-11-23T07:34:48.880Z,1.00
2018-11-23T07:37:17.120Z,1.10
2018-11-23T07:39:56.826Z,1.10
2018-11-23T07:42:26.755Z,1.20
2018-11-23T07:44:54.999Z,1.20
2018-11-23T07:47:23.208Z,1.20
2018-11-23T07:49:51.439Z,1.30
2018-11-23T07:52:19.651Z,1.30
2018-11-23T07:54:47.859Z,1.30
2018-11-23T07:57:16.062Z,1.30
2018-11-23T07:59:44.241Z,1.30
2018-11-23T08:02:13.268Z,1.30
2018-11-23T08:04:42.081Z,1.40
2018-11-23T08:07:11.120Z,1.40
2018-11-23T08:09:40.035Z,1.50
2018-11-23T08:12:08.579Z,1.60
2018-11-23T08:14:36.955Z,1.60
2018-11-23T08:17:05.547Z,1.70
2018-11-23T08:19:33.743Z,1.70
2018-11-23T08:22:02.036Z,1.80
2018-11-23T08:24:30.296Z,1.80
2018-11-23T08:26:58.495Z,1.90
2018-11-23T08:29:26.675Z,1.90
2018-11-23T08:31:55.032Z,2.00
2018-11-23T08:34:23.219Z,1.90
2018-11-23T08:36:51.419Z,2.00
2018-11-23T08:39:19.643Z,2.10
2018-11-23T08:41:47.870Z,2.20
2018-11-23T08:44:16.075Z,2.30
2018-11-23T08:46:44.247Z,2.30
2018-11-23T08:49:12.464Z,2.40
2018-11-23T08:51:40.696Z,2.50
2018-11-23T08:54:08.867Z,2.50
2018-11-23T08:56:37.109Z,2.60
2018-11-23T08:59:05.328Z,2.70
2018-11-23T09:01:33.555Z,2.80
2018-11-23T09:04:01.767Z,2.90
2018-11-23T09:06:29.960Z,3.00
2018-11-23T09:08:58.163Z,3.00
2018-11-23T09:11:26.371Z,3.00
2018-11-23T09:13:54.551Z,2.90
2018-11-23T09:16:22.746Z,2.80
2018-11-23T09:18:50.963Z,2.80
2018-11-23T09:21:19.179Z,2.80
2018-11-23T09:23:47.403Z,2.80
2018-11-23T09:26:15.608Z,2.90
2018-11-23T09:28:43.824Z,3.00
2018-11-23T09:31:12.024Z,3.20
2018-11-23T09:33:40.267Z,3.30
2018-11-23T09:36:08.451Z,3.50
2018-11-23T09:38:36.675Z,3.60
2018-11-23T09:41:05.014Z,3.70
2018-11-23T09:43:33.227Z,3.80
2018-11-23T09:46:01.444Z,3.90
2018-11-23T09:48:29.651Z,3.90
2018-11-23T09:50:57.852Z,3.80
2018-11-23T09:53:26.068Z,3.80
2018-11-23T09:55:54.266Z,3.80
2018-11-23T09:58:22.435Z,3.80
2018-11-23T10:00:50.651Z,3.80
2018-11-23T10:03:18.873Z,3.80
2018-11-23T10:05:47.093Z,3.90
2018-11-23T10:08:15.308Z,4.00
2018-11-23T10:10:43.520Z,4.00
2018-11-23T10:13:11.831Z,4.10
2018-11-23T10:15:40.039Z,4.20
2018-11-23T10:18:08.243Z,4.30
2018-11-23T10:20:36.495Z,4.40
2018-11-23T10:23:04.975Z,4.60
2018-11-23T10:25:34.420Z,4.80
2018-11-23T10:28:02.668Z,4.90
2018-11-23T10:30:32.128Z,4.90
2018-11-23T10:33:01.666Z,4.80
2018-11-23T10:35:30.148Z,4.90
2018-11-23T10:37:59.742Z,4.90
2018-11-23T10:40:29.688Z,5.00
2018-11-23T10:42:57.891Z,5.10
2018-11-23T10:45:27.383Z,5.10
2018-11-23T10:47:56.426Z,5.10
2018-11-23T10:50:27.281Z,5.20
2018-11-23T10:52:55.496Z,5.30
2018-11-23T10:55:25.264Z,5.40
2018-11-23T10:57:53.575Z,5.50
2018-11-23T11:00:27.211Z,5.60
2018-11-23T11:03:02.409Z,6.00
2018-11-23T11:05:35.955Z,6.60
2018-11-23T11:08:04.820Z,7.50
2018-11-23T11:10:33.044Z,8.50
2018-11-23T11:13:01.252Z,9.40
2018-11-23T11:15:29.472Z,10.00
2018-11-23T11:17:57.687Z,10.40
2018-11-23T11:20:25.898Z,11.10
2018-11-23T11:22:54.160Z,11.80
2018-11-23T11:25:22.374Z,12.30
2018-11-23T11:27:50.611Z,13.00
2018-11-23T11:30:19.328Z,13.80
2018-11-23T11:32:48.121Z,14.10
2018-11-23T11:35:16.351Z,14.40
2018-11-23T11:37:44.911Z,14.90
2018-11-23T11:40:14.429Z,15.50
2018-11-23T11:42:43.361Z,16.00
2018-11-23T11:45:13.165Z,16.40
2018-11-23T11:47:42.068Z,16.80
2018-11-23T11:50:11.271Z,16.70
2018-11-23T11:52:40.699Z,16.80
2018-11-23T11:55:11.027Z,16.70
2018-11-23T11:57:39.315Z,16.60
2018-11-23T12:00:10.370Z,17.00
2018-11-23T12:02:38.595Z,17.40
2018-11-23T12:05:07.779Z,17.40
2018-11-23T12:07:35.988Z,17.20
2018-11-23T12:10:04.548Z,17.50
2018-11-23T12:12:32.740Z,17.80
2018-11-23T12:15:00.959Z,18.10
2018-11-23T12:17:29.151Z,18.30
2018-11-23T12:19:57.379Z,18.40
2018-11-23T12:22:25.638Z,18.50
2018-11-23T12:24:54.281Z,18.70
2018-11-23T12:27:22.487Z,18.80
2018-11-23T12:29:50.703Z,19.20
2018-11-23T12:32:18.895Z,19.60
2018-11-23T12:34:47.131Z,19.80
2018-11-23T12:37:15.378Z,20.00
2018-11-23T12:39:43.605Z,20.10
2018-11-23T12:42:11.844Z,20.10
2018-11-23T12:44:40.055Z,20.40
2018-11-23T12:47:08.281Z,20.70
2018-11-23T12:49:36.489Z,20.90
2018-11-23T12:52:04.935Z,20.40
2018-11-23T12:54:33.151Z,19.90
2018-11-23T12:57:01.388Z,19.80
2018-11-23T12:59:29.723Z,19.80
2018-11-23T13:01:58.064Z,20.20
2018-11-23T13:04:26.291Z,20.20
2018-11-23T13:06:54.554Z,20.20
2018-11-23T13:09:22.783Z,20.40
2018-11-23T13:11:51.020Z,20.40
2018-11-23T13:14:19.211Z,20.80
2018-11-23T13:16:47.459Z,21.10
2018-11-23T13:19:15.669Z,21.30
2018-11-23T13:21:43.888Z,21.20
2018-11-23T13:24:12.138Z,21.10
2018-11-23T13:26:40.375Z,21.30
2018-11-23T13:29:16.000Z,21.60
2018-11-23T13:31:36.831Z,21.40
2018-11-23T13:34:05.152Z,21.60
2018-11-23T13:36:33.375Z,21.80
2018-11-23T13:39:01.625Z,21.90
2018-11-23T13:41:29.914Z,22.10
2018-11-23T13:43:58.156Z,22.20
2018-11-23T13:46:26.363Z,22.40
2018-11-23T13:48:54.559Z,22.60
2018-11-23T13:51:22.771Z,22.60
2018-11-23T13:53:51.012Z,22.30
2018-11-23T13:56:19.277Z,21.80
2018-11-23T13:58:47.487Z,21.60
2018-11-23T14:01:15.662Z,21.40
2018-11-23T14:03:43.884Z,21.40
2018-11-23T14:06:12.119Z,21.30
2018-11-23T14:08:40.319Z,21.30
2018-11-23T14:11:08.527Z,21.50
2018-11-23T14:13:36.760Z,21.70
2018-11-23T14:16:05.316Z,21.70
2018-11-23T14:18:33.519Z,21.80
2018-11-23T14:21:01.752Z,21.60
2018-11-23T14:23:29.979Z,21.70
2018-11-23T14:25:58.184Z,21.50
2018-11-23T14:28:26.395Z,21.40
2018-11-23T14:30:54.608Z,21.10
2018-11-23T14:33:22.847Z,21.00
2018-11-23T14:35:51.140Z,20.50
2018-11-23T14:38:19.359Z,20.00
2018-11-23T14:40:47.579Z,19.60
2018-11-23T14:43:15.851Z,19.20
2018-11-23T14:45:44.076Z,18.60
2018-11-23T14:48:12.279Z,17.90
2018-11-23T14:50:45.884Z,17.10
2018-11-23T14:53:14.102Z,16.30
2018-11-23T14:55:42.360Z,15.50
2018-11-23T14:58:10.730Z,14.90
2018-11-23T15:00:39.028Z,14.40
2018-11-23T15:03:07.552Z,13.80
2018-11-23T15:05:36.227Z,13.20
2018-11-23T15:08:04.551Z,12.90
2018-11-23T15:10:33.733Z,12.40
2018-11-23T15:13:02.847Z,12.10
2018-11-23T15:15:32.595Z,11.90
2018-11-23T15:18:01.163Z,11.60
2018-11-23T15:20:31.071Z,11.40
2018-11-23T15:23:00.903Z,11.20
2018-11-23T15:25:29.118Z,11.00
2018-11-23T15:27:57.355Z,10.90
2018-11-23T15:30:27.200Z,10.70
2018-11-23T15:32:55.755Z,10.50
2018-11-23T15:35:24.059Z,10.30
2018-11-23T15:37:52.307Z,10.20
2018-11-23T15:40:22.704Z,10.00
2018-11-23T15:42:52.019Z,9.90
2018-11-23T15:45:21.574Z,9.80
2018-11-23T15:47:49.793Z,9.70
2018-11-23T15:50:20.372Z,9.60
2018-11-23T15:52:48.815Z,9.50
2018-11-23T15:55:21.368Z,9.40
2018-11-23T15:57:50.674Z,9.30
2018-11-23T16:03:10.622Z,9.20
2018-11-23T16:05:39.089Z,9.10
2018-11-23T16:08:09.128Z,9.00
2018-11-23T16:10:38.091Z,8.90
2018-11-23T16:13:11.451Z,8.90
2018-11-23T16:15:36.139Z,8.80
2018-11-23T16:18:04.839Z,8.60
2018-11-23T16:20:35.198Z,8.60
2018-11-23T16:23:04.898Z,8.60
2018-11-23T16:25:33.214Z,8.50
2018-11-23T16:28:02.916Z,8.50
2018-11-23T16:30:35.295Z,8.40
2018-11-23T16:33:04.711Z,8.30
2018-11-23T16:35:34.480Z,8.20
2018-11-23T16:38:04.250Z,8.20
2018-11-23T16:40:33.724Z,8.20
2018-11-23T16:43:02.472Z,8.10
2018-11-23T16:45:33.064Z,8.10
2018-11-23T16:48:02.532Z,8.00
2018-11-23T16:50:31.015Z,8.00
2018-11-23T16:52:59.538Z,7.80
2018-11-23T16:55:27.999Z,7.80
2018-11-23T16:57:58.540Z,7.80
2018-11-23T17:00:32.105Z,7.80
2018-11-23T17:03:01.718Z,7.70
2018-11-23T17:05:31.510Z,7.70
2018-11-23T17:07:59.735Z,7.60
2018-11-23T17:10:27.983Z,7.60
2018-11-23T17:12:56.222Z,7.60
2018-11-23T17:15:25.801Z,7.50
2018-11-23T17:17:54.264Z,7.50
2018-11-23T17:20:24.194Z,7.40
2018-11-23T17:22:53.565Z,7.40
2018-11-23T17:25:22.734Z,7.30
2018-11-23T17:27:51.432Z,7.20
2018-11-23T17:30:21.183Z,7.20
2018-11-23T17:32:49.410Z,7.10
2018-11-23T17:35:17.751Z,7.10
2018-11-23T17:37:45.960Z,7.00
2018-11-23T17:40:15.664Z,7.00
2018-11-23T17:42:43.971Z,7.00
2018-11-23T17:45:13.651Z,6.90
2018-11-23T17:47:41.927Z,6.90
2018-11-23T17:50:12.711Z,6.70
2018-11-23T17:52:40.961Z,6.70
2018-11-23T17:55:10.288Z,6.50
2018-11-23T17:57:38.704Z,6.50
2018-11-23T18:00:10.607Z,6.50
2018-11-23T18:02:38.844Z,6.40
2018-11-23T18:05:08.516Z,6.40
2018-11-23T18:10:29.236Z,6.40
2018-11-23T18:12:58.131Z,6.30
2018-11-23T18:15:27.644Z,6.30
2018-11-23T18:17:56.998Z,6.30
2018-11-23T18:20:26.367Z,6.10
2018-11-23T18:22:56.169Z,6.00
2018-11-23T18:25:26.012Z,6.00
2018-11-23T18:27:59.747Z,6.00
2018-11-23T18:30:28.920Z,5.90
2018-11-23T18:32:57.179Z,5.90
2018-11-23T18:35:25.371Z,5.80
2018-11-23T18:37:53.615Z,5.80
2018-11-23T18:40:21.843Z,5.70
2018-11-23T18:42:50.091Z,5.50
2018-11-23T18:45:18.304Z,5.50
2018-11-23T18:47:46.495Z,5.50
2018-11-23T18:50:16.888Z,5.50
2018-11-23T18:52:45.216Z,5.50
2018-11-23T18:55:18.241Z,5.40
2018-11-23T18:57:42.555Z,5.50
2018-11-23T19:00:14.686Z,5.40
2018-11-23T19:02:44.955Z,5.50
2018-11-23T19:05:15.578Z,5.40
2018-11-23T19:07:43.832Z,5.40
2018-11-23T19:10:13.137Z,5.30
2018-11-23T19:12:41.541Z,5.20
2018-11-23T19:15:11.265Z,5.10
2018-11-23T19:17:39.497Z,5.00
2018-11-23T19:20:11.003Z,5.00
2018-11-23T19:22:39.215Z,5.00
2018-11-23T19:25:07.544Z,5.10
2018-11-23T19:27:35.791Z,5.10
2018-11-23T19:30:08.030Z,5.10
2018-11-23T19:32:36.232Z,5.00
2018-11-23T19:35:04.843Z,5.00
2018-11-23T19:37:33.080Z,5.00
2018-11-23T19:40:01.487Z,5.00
2018-11-23T19:42:29.822Z,5.00
2018-11-23T19:44:58.024Z,5.00
2018-11-23T19:47:26.275Z,4.90
2018-11-23T19:49:54.503Z,4.80
2018-11-23T19:52:22.813Z,4.80
2018-11-23T19:54:51.060Z,4.80
2018-11-23T19:57:19.320Z,4.80
2018-11-23T19:59:47.544Z,4.80
2018-11-23T20:02:15.768Z,4.70
2018-11-23T20:04:44.091Z,4.80
2018-11-23T20:07:12.328Z,4.80
2018-11-23T20:09:40.705Z,4.80
2018-11-23T20:12:09.036Z,4.90
2018-11-23T20:14:37.332Z,4.80
2018-11-23T20:17:05.702Z,4.80
2018-11-23T20:19:33.891Z,4.80
2018-11-23T20:22:02.191Z,4.80
2018-11-23T20:24:30.401Z,4.80
2018-11-23T20:26:58.656Z,4.80
2018-11-23T20:29:26.940Z,4.80
2018-11-23T20:31:55.208Z,4.70
2018-11-23T20:34:23.469Z,4.70
2018-11-23T20:36:51.684Z,4.70
2018-11-23T20:39:19.892Z,4.60
2018-11-23T20:41:48.092Z,4.60
2018-11-23T20:44:16.595Z,4.60
2018-11-23T20:46:44.800Z,4.60
2018-11-23T20:49:13.045Z,4.60
2018-11-23T20:51:41.519Z,4.50
2018-11-23T20:54:09.749Z,4.50
2018-11-23T20:56:37.987Z,4.50
2018-11-23T20:59:06.205Z,4.50
2018-11-23T21:01:34.475Z,4.40
2018-11-23T21:04:02.695Z,4.40
2018-11-23T21:06:30.991Z,4.40
2018-11-23T21:08:59.188Z,4.30
2018-11-23T21:11:27.459Z,4.30
2018-11-23T21:13:55.997Z,4.30
2018-11-23T21:16:24.360Z,4.30
2018-11-23T21:18:52.723Z,4.20
2018-11-23T21:21:20.927Z,4.20
2018-11-23T21:23:49.151Z,4.20
2018-11-23T21:26:17.351Z,4.20
2018-11-23T21:28:45.603Z,4.20
2018-11-23T21:31:13.811Z,4.20
2018-11-23T21:33:42.069Z,4.10
2018-11-23T21:36:10.310Z,4.10
2018-11-23T21:38:38.539Z,4.10
2018-11-23T21:41:06.760Z,4.10
2018-11-23T21:43:34.960Z,4.10
2018-11-23T21:46:03.151Z,4.00
2018-11-23T21:48:31.355Z,4.00
2018-11-23T21:50:59.588Z,4.00
2018-11-23T21:53:27.815Z,3.90
2018-11-23T21:55:56.024Z,3.90
2018-11-23T21:58:24.221Z,3.90
2018-11-23T22:00:53.170Z,3.90
2018-11-23T22:03:23.434Z,3.90
2018-11-23T22:05:51.691Z,3.90
2018-11-23T22:08:19.909Z,3.90
2018-11-23T22:10:48.151Z,3.90
2018-11-23T22:13:16.356Z,3.80
2018-11-23T22:15:44.767Z,3.80
2018-11-23T22:18:13.079Z,3.80
2018-11-23T22:20:41.306Z,3.70
2018-11-23T22:23:09.696Z,3.70
2018-11-23T22:25:37.903Z,3.70
2018-11-23T22:28:06.240Z,3.70
2018-11-23T22:30:34.463Z,3.70
2018-11-23T22:33:02.739Z,3.70
2018-11-23T22:35:31.115Z,3.70
2018-11-23T22:37:59.320Z,3.70
2018-11-23T22:40:27.703Z,3.60
2018-11-23T22:42:57.427Z,3.60
2018-11-23T22:45:25.808Z,3.60
2018-11-23T22:47:54.140Z,3.50
2018-11-23T22:50:23.096Z,3.60
2018-11-23T22:52:51.369Z,3.50
2018-11-23T22:55:20.133Z,3.50
2018-11-23T22:57:48.359Z,3.50
2018-11-23T23:00:26.101Z,3.40
2018-11-23T23:02:54.384Z,3.40
2018-11-23T23:05:23.593Z,3.30
2018-11-23T23:07:51.847Z,3.30
2018-11-23T23:10:20.071Z,3.30
2018-11-23T23:12:48.488Z,3.30
2018-11-23T23:15:16.771Z,3.30
2018-11-23T23:17:45.220Z,3.30
2018-11-23T23:20:16.541Z,3.30
2018-11-23T23:22:44.746Z,3.30
2018-11-23T23:25:13.181Z,3.20
2018-11-23T23:27:41.405Z,3.20
2018-11-23T23:30:10.891Z,3.10
2018-11-23T23:32:39.287Z,3.10
2018-11-23T23:35:08.710Z,3.10
2018-11-23T23:37:37.088Z,3.10
2018-11-23T23:40:07.720Z,3.10
2018-11-23T23:42:35.944Z,3.10
2018-11-23T23:45:04.999Z,3.10
2018-11-23T23:47:33.235Z,3.10
2018-11-23T23:50:01.464Z,3.00
2018-11-23T23:52:29.719Z,3.00
2018-11-23T23:54:57.935Z,3.00
2018-11-23T23:57:26.160Z,3.00
2018-11-23T23:59:54.439Z,3.00
